sensor_id;sensor_type;location;lat;lon;timestamp;temperature;humidity
12049;DHT22;6085;49.452;8.502;2022-08-03T00:01:42;20.20;99.90
12049;DHT22;6085;49.452;8.502;2022-08-03T00:05:44;20.10;99.90
12049;DHT22;6085;49.452;8.502;2022-08-03T00:09:46;20.10;99.90
12049;DHT22;6085;49.452;8.502;2022-08-03T00:13:49;20.00;99.90
12049;DHT22;6085;49.452;8.502;2022-08-03T00:17:52;20.00;99.90
12049;DHT22;6085;49.452;8.502;2022-08-03T00:21:54;19.90;99.90
12049;DHT22;6085;49.452;8.502;2022-08-03T00:25:55;19.80;99.90
12049;DHT22;6085;49.452;8.502;2022-08-03T00:29:57;19.80;99.90
12049;DHT22;6085;49.452;8.502;2022-08-03T00:34:00;19.80;99.90
12049;DHT22;6085;49.452;8.502;2022-08-03T00:38:02;19.80;99.90
12049;DHT22;6085;49.452;8.502;2022-08-03T00:42:05;19.70;99.90
12049;DHT22;6085;49.452;8.502;2022-08-03T00:46:07;19.70;99.90
12049;DHT22;6085;49.452;8.502;2022-08-03T00:50:10;19.70;99.90
12049;DHT22;6085;49.452;8.502;2022-08-03T00:54:13;19.70;99.90
12049;DHT22;6085;49.452;8.502;2022-08-03T00:58:15;19.70;99.90
12049;DHT22;6085;49.452;8.502;2022-08-03T01:02:17;19.60;99.90
12049;DHT22;6085;49.452;8.502;2022-08-03T01:06:26;19.60;99.90
12049;DHT22;6085;49.452;8.502;2022-08-03T01:10:38;19.50;99.90
12049;DHT22;6085;49.452;8.502;2022-08-03T01:14:48;19.50;99.90
12049;DHT22;6085;49.452;8.502;2022-08-03T01:18:57;19.40;99.90
12049;DHT22;6085;49.452;8.502;2022-08-03T01:23:13;19.40;99.90
12049;DHT22;6085;49.452;8.502;2022-08-03T01:27:20;19.40;99.90
12049;DHT22;6085;49.452;8.502;2022-08-03T01:31:28;19.30;99.90
12049;DHT22;6085;49.452;8.502;2022-08-03T01:35:35;19.20;99.90
12049;DHT22;6085;49.452;8.502;2022-08-03T01:39:40;19.10;99.90
12049;DHT22;6085;49.452;8.502;2022-08-03T01:43:45;19.00;99.90
12049;DHT22;6085;49.452;8.502;2022-08-03T01:47:51;19.00;99.90
12049;DHT22;6085;49.452;8.502;2022-08-03T01:51:55;18.90;99.90
12049;DHT22;6085;49.452;8.502;2022-08-03T01:55:58;18.90;99.90
12049;DHT22;6085;49.452;8.502;2022-08-03T02:00:02;18.80;99.90
12049;DHT22;6085;49.452;8.502;2022-08-03T02:04:06;18.80;99.90
12049;DHT22;6085;49.452;8.502;2022-08-03T02:08:09;18.80;99.90
12049;DHT22;6085;49.452;8.502;2022-08-03T02:12:13;18.80;99.90
12049;DHT22;6085;49.452;8.502;2022-08-03T02:16:17;18.80;99.90
12049;DHT22;6085;49.452;8.502;2022-08-03T02:20:21;18.80;99.90
12049;DHT22;6085;49.452;8.502;2022-08-03T02:24:23;18.70;99.90
12049;DHT22;6085;49.452;8.502;2022-08-03T02:28:37;18.70;99.90
12049;DHT22;6085;49.452;8.502;2022-08-03T02:32:43;18.60;99.90
12049;DHT22;6085;49.452;8.502;2022-08-03T02:36:51;18.50;99.90
12049;DHT22;6085;49.452;8.502;2022-08-03T02:40:55;18.50;99.90
12049;DHT22;6085;49.452;8.502;2022-08-03T02:45:01;18.40;99.90
12049;DHT22;6085;49.452;8.502;2022-08-03T02:49:04;18.40;99.90
12049;DHT22;6085;49.452;8.502;2022-08-03T02:53:08;18.30;99.90
12049;DHT22;6085;49.452;8.502;2022-08-03T02:57:11;18.30;99.90
12049;DHT22;6085;49.452;8.502;2022-08-03T03:01:14;18.30;99.90
12049;DHT22;6085;49.452;8.502;2022-08-03T03:05:17;18.30;99.90
12049;DHT22;6085;49.452;8.502;2022-08-03T03:09:21;18.20;99.90
12049;DHT22;6085;49.452;8.502;2022-08-03T03:13:24;18.10;99.90
12049;DHT22;6085;49.452;8.502;2022-08-03T03:17:27;18.10;99.90
12049;DHT22;6085;49.452;8.502;2022-08-03T03:21:30;18.00;99.90
12049;DHT22;6085;49.452;8.502;2022-08-03T03:25:35;18.00;99.90
12049;DHT22;6085;49.452;8.502;2022-08-03T03:29:37;18.00;99.90
12049;DHT22;6085;49.452;8.502;2022-08-03T03:33:39;18.00;99.90
12049;DHT22;6085;49.452;8.502;2022-08-03T03:37:41;17.90;99.90
12049;DHT22;6085;49.452;8.502;2022-08-03T03:41:45;17.90;99.90
12049;DHT22;6085;49.452;8.502;2022-08-03T03:45:46;17.80;99.90
12049;DHT22;6085;49.452;8.502;2022-08-03T03:49:49;17.80;99.90
12049;DHT22;6085;49.452;8.502;2022-08-03T03:53:55;17.80;99.90
12049;DHT22;6085;49.452;8.502;2022-08-03T03:57:58;17.80;99.90
12049;DHT22;6085;49.452;8.502;2022-08-03T04:02:00;17.70;99.90
12049;DHT22;6085;49.452;8.502;2022-08-03T04:06:02;17.70;99.90
12049;DHT22;6085;49.452;8.502;2022-08-03T04:10:24;17.70;99.90
12049;DHT22;6085;49.452;8.502;2022-08-03T04:14:50;17.70;99.90
12049;DHT22;6085;49.452;8.502;2022-08-03T04:18:59;17.80;99.90
12049;DHT22;6085;49.452;8.502;2022-08-03T04:23:03;17.90;99.90
12049;DHT22;6085;49.452;8.502;2022-08-03T04:27:08;17.90;99.90
12049;DHT22;6085;49.452;8.502;2022-08-03T04:31:14;17.90;99.90
12049;DHT22;6085;49.452;8.502;2022-08-03T04:35:17;18.00;99.90
12049;DHT22;6085;49.452;8.502;2022-08-03T04:39:23;18.10;99.90
12049;DHT22;6085;49.452;8.502;2022-08-03T04:43:26;18.20;99.90
12049;DHT22;6085;49.452;8.502;2022-08-03T04:47:32;18.30;99.90
12049;DHT22;6085;49.452;8.502;2022-08-03T04:51:36;18.50;99.90
12049;DHT22;6085;49.452;8.502;2022-08-03T04:55:40;18.60;99.90
12049;DHT22;6085;49.452;8.502;2022-08-03T04:59:41;18.80;99.90
12049;DHT22;6085;49.452;8.502;2022-08-03T05:03:45;19.00;99.90
12049;DHT22;6085;49.452;8.502;2022-08-03T05:07:47;19.20;99.90
12049;DHT22;6085;49.452;8.502;2022-08-03T05:11:49;19.30;99.90
12049;DHT22;6085;49.452;8.502;2022-08-03T05:15:51;19.50;99.90
12049;DHT22;6085;49.452;8.502;2022-08-03T05:19:55;19.80;99.90
12049;DHT22;6085;49.452;8.502;2022-08-03T05:23:57;20.10;99.90
12049;DHT22;6085;49.452;8.502;2022-08-03T05:27:58;20.40;99.90
12049;DHT22;6085;49.452;8.502;2022-08-03T05:32:00;20.70;99.90
12049;DHT22;6085;49.452;8.502;2022-08-03T05:36:04;20.90;99.90
12049;DHT22;6085;49.452;8.502;2022-08-03T05:40:07;21.10;99.90
12049;DHT22;6085;49.452;8.502;2022-08-03T05:44:09;21.40;99.90
12049;DHT22;6085;49.452;8.502;2022-08-03T05:48:10;21.60;99.90
12049;DHT22;6085;49.452;8.502;2022-08-03T05:52:14;22.00;99.90
12049;DHT22;6085;49.452;8.502;2022-08-03T05:56:15;22.30;99.90
12049;DHT22;6085;49.452;8.502;2022-08-03T06:00:18;22.70;99.90
12049;DHT22;6085;49.452;8.502;2022-08-03T06:04:19;23.10;99.90
12049;DHT22;6085;49.452;8.502;2022-08-03T06:08:23;23.50;99.90
12049;DHT22;6085;49.452;8.502;2022-08-03T06:12:25;23.90;99.90
12049;DHT22;6085;49.452;8.502;2022-08-03T06:16:27;24.20;99.90
12049;DHT22;6085;49.452;8.502;2022-08-03T06:20:29;24.50;99.90
12049;DHT22;6085;49.452;8.502;2022-08-03T06:24:32;24.80;99.90
12049;DHT22;6085;49.452;8.502;2022-08-03T06:28:33;25.10;99.90
12049;DHT22;6085;49.452;8.502;2022-08-03T06:32:35;25.50;99.90
12049;DHT22;6085;49.452;8.502;2022-08-03T06:36:37;25.60;99.90
12049;DHT22;6085;49.452;8.502;2022-08-03T06:40:41;26.00;99.90
12049;DHT22;6085;49.452;8.502;2022-08-03T06:44:43;26.50;99.90
12049;DHT22;6085;49.452;8.502;2022-08-03T06:48:45;27.00;99.90
12049;DHT22;6085;49.452;8.502;2022-08-03T06:52:46;27.30;99.90
12049;DHT22;6085;49.452;8.502;2022-08-03T06:56:50;28.30;99.00
12049;DHT22;6085;49.452;8.502;2022-08-03T07:00:52;29.50;96.60
12049;DHT22;6085;49.452;8.502;2022-08-03T07:04:54;29.90;95.20
12049;DHT22;6085;49.452;8.502;2022-08-03T07:08:56;31.10;93.10
12049;DHT22;6085;49.452;8.502;2022-08-03T07:13:00;32.20;90.10
12049;DHT22;6085;49.452;8.502;2022-08-03T07:17:02;32.70;86.80
12049;DHT22;6085;49.452;8.502;2022-08-03T07:21:04;32.70;85.00
12049;DHT22;6085;49.452;8.502;2022-08-03T07:25:08;32.30;83.60
12049;DHT22;6085;49.452;8.502;2022-08-03T07:29:11;31.40;85.10
12049;DHT22;6085;49.452;8.502;2022-08-03T07:33:13;30.60;86.40
12049;DHT22;6085;49.452;8.502;2022-08-03T07:37:15;30.50;87.30
12049;DHT22;6085;49.452;8.502;2022-08-03T07:41:17;30.40;87.60
12049;DHT22;6085;49.452;8.502;2022-08-03T07:45:21;30.60;87.00
12049;DHT22;6085;49.452;8.502;2022-08-03T07:49:23;31.00;85.00
12049;DHT22;6085;49.452;8.502;2022-08-03T07:53:25;32.30;81.20
12049;DHT22;6085;49.452;8.502;2022-08-03T07:57:27;34.40;75.50
12049;DHT22;6085;49.452;8.502;2022-08-03T08:01:30;37.40;66.40
12049;DHT22;6085;49.452;8.502;2022-08-03T08:05:36;39.00;60.30
12049;DHT22;6085;49.452;8.502;2022-08-03T08:09:38;40.60;54.00
12049;DHT22;6085;49.452;8.502;2022-08-03T08:13:40;41.60;49.50
12049;DHT22;6085;49.452;8.502;2022-08-03T08:17:45;42.40;47.40
12049;DHT22;6085;49.452;8.502;2022-08-03T08:21:47;43.10;45.20
12049;DHT22;6085;49.452;8.502;2022-08-03T08:25:50;43.40;42.50
12049;DHT22;6085;49.452;8.502;2022-08-03T08:29:52;42.50;42.10
12049;DHT22;6085;49.452;8.502;2022-08-03T08:33:55;42.30;42.40
12049;DHT22;6085;49.452;8.502;2022-08-03T08:37:59;43.10;41.60
12049;DHT22;6085;49.452;8.502;2022-08-03T08:42:01;43.10;40.60
12049;DHT22;6085;49.452;8.502;2022-08-03T08:46:04;42.70;40.30
12049;DHT22;6085;49.452;8.502;2022-08-03T08:50:09;41.90;40.80
12049;DHT22;6085;49.452;8.502;2022-08-03T08:54:11;41.80;40.60
12049;DHT22;6085;49.452;8.502;2022-08-03T08:58:15;42.50;40.20
12049;DHT22;6085;49.452;8.502;2022-08-03T09:02:17;42.30;39.40
12049;DHT22;6085;49.452;8.502;2022-08-03T09:06:21;41.60;39.90
12049;DHT22;6085;49.452;8.502;2022-08-03T09:10:23;42.70;39.10
12049;DHT22;6085;49.452;8.502;2022-08-03T09:14:26;43.70;38.00
12049;DHT22;6085;49.452;8.502;2022-08-03T09:18:30;44.20;37.30
12049;DHT22;6085;49.452;8.502;2022-08-03T09:22:34;44.70;36.10
12049;DHT22;6085;49.452;8.502;2022-08-03T09:26:36;45.40;35.60
12049;DHT22;6085;49.452;8.502;2022-08-03T09:30:40;45.40;34.90
12049;DHT22;6085;49.452;8.502;2022-08-03T09:34:42;44.40;35.50
12049;DHT22;6085;49.452;8.502;2022-08-03T09:39:00;44.80;35.30
12049;DHT22;6085;49.452;8.502;2022-08-03T09:43:03;44.80;34.80
12049;DHT22;6085;49.452;8.502;2022-08-03T09:47:08;45.00;35.20
12049;DHT22;6085;49.452;8.502;2022-08-03T09:51:10;44.20;35.30
12049;DHT22;6085;49.452;8.502;2022-08-03T09:55:16;43.50;36.00
12049;DHT22;6085;49.452;8.502;2022-08-03T09:59:24;43.00;36.10
12049;DHT22;6085;49.452;8.502;2022-08-03T10:03:28;42.20;36.90
12049;DHT22;6085;49.452;8.502;2022-08-03T10:07:40;41.80;37.80
12049;DHT22;6085;49.452;8.502;2022-08-03T10:11:44;41.70;38.30
12049;DHT22;6085;49.452;8.502;2022-08-03T10:15:47;42.00;37.90
12049;DHT22;6085;49.452;8.502;2022-08-03T10:19:49;42.10;37.80
12049;DHT22;6085;49.452;8.502;2022-08-03T10:23:52;42.30;37.60
12049;DHT22;6085;49.452;8.502;2022-08-03T10:27:57;43.00;37.20
12049;DHT22;6085;49.452;8.502;2022-08-03T10:32:08;43.50;36.30
12049;DHT22;6085;49.452;8.502;2022-08-03T10:36:12;43.10;36.80
12049;DHT22;6085;49.452;8.502;2022-08-03T10:40:17;43.20;36.30
12049;DHT22;6085;49.452;8.502;2022-08-03T10:44:25;42.60;37.30
12049;DHT22;6085;49.452;8.502;2022-08-03T10:48:29;41.10;38.90
12049;DHT22;6085;49.452;8.502;2022-08-03T10:52:32;40.70;39.70
12049;DHT22;6085;49.452;8.502;2022-08-03T10:56:38;41.40;39.90
12049;DHT22;6085;49.452;8.502;2022-08-03T11:00:59;41.60;39.80
12049;DHT22;6085;49.452;8.502;2022-08-03T11:09:40;40.20;41.40
12049;DHT22;6085;49.452;8.502;2022-08-03T11:13:56;39.60;41.90
12049;DHT22;6085;49.452;8.502;2022-08-03T11:18:10;39.70;42.50
12049;DHT22;6085;49.452;8.502;2022-08-03T11:22:12;39.90;42.30
12049;DHT22;6085;49.452;8.502;2022-08-03T11:26:16;39.80;42.70
12049;DHT22;6085;49.452;8.502;2022-08-03T11:30:23;39.90;42.60
12049;DHT22;6085;49.452;8.502;2022-08-03T11:34:27;40.80;41.50
12049;DHT22;6085;49.452;8.502;2022-08-03T11:38:29;40.60;41.50
12049;DHT22;6085;49.452;8.502;2022-08-03T11:42:38;40.10;42.20
12049;DHT22;6085;49.452;8.502;2022-08-03T11:46:40;39.70;42.60
12049;DHT22;6085;49.452;8.502;2022-08-03T11:50:45;40.00;41.90
12049;DHT22;6085;49.452;8.502;2022-08-03T11:54:50;40.00;42.40
12049;DHT22;6085;49.452;8.502;2022-08-03T11:58:53;40.00;41.70
12049;DHT22;6085;49.452;8.502;2022-08-03T12:02:57;39.60;42.40
12049;DHT22;6085;49.452;8.502;2022-08-03T12:07:00;39.60;42.40
12049;DHT22;6085;49.452;8.502;2022-08-03T12:11:04;39.30;43.00
12049;DHT22;6085;49.452;8.502;2022-08-03T12:15:07;39.00;42.50
12049;DHT22;6085;49.452;8.502;2022-08-03T12:19:09;37.80;44.80
12049;DHT22;6085;49.452;8.502;2022-08-03T12:23:12;37.10;45.20
12049;DHT22;6085;49.452;8.502;2022-08-03T12:27:22;36.60;45.70
12049;DHT22;6085;49.452;8.502;2022-08-03T12:31:24;36.10;46.10
12049;DHT22;6085;49.452;8.502;2022-08-03T12:35:26;35.80;46.80
12049;DHT22;6085;49.452;8.502;2022-08-03T12:39:30;35.40;47.00
12049;DHT22;6085;49.452;8.502;2022-08-03T12:43:32;35.10;47.90
12049;DHT22;6085;49.452;8.502;2022-08-03T12:47:49;34.80;48.40
12049;DHT22;6085;49.452;8.502;2022-08-03T12:51:58;34.40;49.80
12049;DHT22;6085;49.452;8.502;2022-08-03T12:56:03;34.20;50.30
12049;DHT22;6085;49.452;8.502;2022-08-03T13:00:13;34.10;50.20
12049;DHT22;6085;49.452;8.502;2022-08-03T13:04:24;34.00;51.20
12049;DHT22;6085;49.452;8.502;2022-08-03T13:08:26;33.90;50.80
12049;DHT22;6085;49.452;8.502;2022-08-03T13:12:30;34.00;50.60
12049;DHT22;6085;49.452;8.502;2022-08-03T13:16:32;33.90;50.20
12049;DHT22;6085;49.452;8.502;2022-08-03T13:20:34;33.90;49.80
12049;DHT22;6085;49.452;8.502;2022-08-03T13:24:36;34.00;50.70
12049;DHT22;6085;49.452;8.502;2022-08-03T13:28:39;34.00;51.30
12049;DHT22;6085;49.452;8.502;2022-08-03T13:32:41;34.00;50.60
12049;DHT22;6085;49.452;8.502;2022-08-03T13:36:43;34.00;51.30
12049;DHT22;6085;49.452;8.502;2022-08-03T13:40:45;33.90;50.90
12049;DHT22;6085;49.452;8.502;2022-08-03T13:44:49;33.90;51.30
12049;DHT22;6085;49.452;8.502;2022-08-03T13:48:51;33.90;50.70
12049;DHT22;6085;49.452;8.502;2022-08-03T13:52:53;34.00;50.20
12049;DHT22;6085;49.452;8.502;2022-08-03T13:56:55;34.10;50.40
12049;DHT22;6085;49.452;8.502;2022-08-03T14:00:58;34.00;50.50
12049;DHT22;6085;49.452;8.502;2022-08-03T14:05:00;34.10;50.20
12049;DHT22;6085;49.452;8.502;2022-08-03T14:09:02;34.10;49.80
12049;DHT22;6085;49.452;8.502;2022-08-03T14:13:05;34.00;50.10
12049;DHT22;6085;49.452;8.502;2022-08-03T14:17:08;33.90;50.20
12049;DHT22;6085;49.452;8.502;2022-08-03T14:21:11;33.80;49.90
12049;DHT22;6085;49.452;8.502;2022-08-03T14:25:13;33.70;50.20
12049;DHT22;6085;49.452;8.502;2022-08-03T14:29:15;33.70;50.60
12049;DHT22;6085;49.452;8.502;2022-08-03T14:33:19;33.70;50.10
12049;DHT22;6085;49.452;8.502;2022-08-03T14:37:20;33.60;50.10
12049;DHT22;6085;49.452;8.502;2022-08-03T14:41:22;33.60;50.20
12049;DHT22;6085;49.452;8.502;2022-08-03T14:45:24;33.60;50.10
12049;DHT22;6085;49.452;8.502;2022-08-03T14:49:27;33.70;50.30
12049;DHT22;6085;49.452;8.502;2022-08-03T14:53:29;33.70;49.90
12049;DHT22;6085;49.452;8.502;2022-08-03T14:57:31;33.80;50.10
12049;DHT22;6085;49.452;8.502;2022-08-03T15:01:33;33.90;50.20
12049;DHT22;6085;49.452;8.502;2022-08-03T15:05:37;33.90;50.60
12049;DHT22;6085;49.452;8.502;2022-08-03T15:09:39;33.80;50.30
12049;DHT22;6085;49.452;8.502;2022-08-03T15:13:41;33.80;49.90
12049;DHT22;6085;49.452;8.502;2022-08-03T15:17:43;33.70;50.20
12049;DHT22;6085;49.452;8.502;2022-08-03T15:21:46;33.80;49.80
12049;DHT22;6085;49.452;8.502;2022-08-03T15:25:48;33.90;49.90
12049;DHT22;6085;49.452;8.502;2022-08-03T15:29:50;34.00;50.10
12049;DHT22;6085;49.452;8.502;2022-08-03T15:33:52;33.90;49.70
12049;DHT22;6085;49.452;8.502;2022-08-03T15:37:55;33.80;49.90
12049;DHT22;6085;49.452;8.502;2022-08-03T15:41:57;33.70;50.10
12049;DHT22;6085;49.452;8.502;2022-08-03T15:45:59;33.60;49.90
12049;DHT22;6085;49.452;8.502;2022-08-03T15:50:01;33.50;49.00
12049;DHT22;6085;49.452;8.502;2022-08-03T15:54:06;33.50;49.40
12049;DHT22;6085;49.452;8.502;2022-08-03T15:58:08;33.50;49.30
12049;DHT22;6085;49.452;8.502;2022-08-03T16:02:10;33.50;49.00
12049;DHT22;6085;49.452;8.502;2022-08-03T16:06:12;33.60;49.40
12049;DHT22;6085;49.452;8.502;2022-08-03T16:10:17;33.70;48.50
12049;DHT22;6085;49.452;8.502;2022-08-03T16:14:19;33.60;48.70
12049;DHT22;6085;49.452;8.502;2022-08-03T16:18:21;33.50;48.70
12049;DHT22;6085;49.452;8.502;2022-08-03T16:22:23;33.50;48.10
12049;DHT22;6085;49.452;8.502;2022-08-03T16:26:27;33.40;49.30
12049;DHT22;6085;49.452;8.502;2022-08-03T16:30:29;33.40;49.90
12049;DHT22;6085;49.452;8.502;2022-08-03T16:34:31;33.30;49.90
12049;DHT22;6085;49.452;8.502;2022-08-03T16:38:33;33.20;49.20
12049;DHT22;6085;49.452;8.502;2022-08-03T16:42:37;33.40;49.20
12049;DHT22;6085;49.452;8.502;2022-08-03T16:46:39;33.40;49.20
12049;DHT22;6085;49.452;8.502;2022-08-03T16:50:43;33.40;48.30
12049;DHT22;6085;49.452;8.502;2022-08-03T16:54:45;33.30;48.90
12049;DHT22;6085;49.452;8.502;2022-08-03T16:58:49;33.20;49.90
12049;DHT22;6085;49.452;8.502;2022-08-03T17:02:51;33.20;50.30
12049;DHT22;6085;49.452;8.502;2022-08-03T17:06:59;33.20;49.90
12049;DHT22;6085;49.452;8.502;2022-08-03T17:11:01;33.20;49.40
12049;DHT22;6085;49.452;8.502;2022-08-03T17:15:05;33.20;49.30
12049;DHT22;6085;49.452;8.502;2022-08-03T17:19:10;33.10;50.10
12049;DHT22;6085;49.452;8.502;2022-08-03T17:23:25;32.90;50.00
12049;DHT22;6085;49.452;8.502;2022-08-03T17:27:31;33.00;50.10
12049;DHT22;6085;49.452;8.502;2022-08-03T17:31:36;32.90;50.20
12049;DHT22;6085;49.452;8.502;2022-08-03T17:35:40;32.90;50.50
12049;DHT22;6085;49.452;8.502;2022-08-03T17:39:42;32.90;50.70
12049;DHT22;6085;49.452;8.502;2022-08-03T17:43:45;32.90;50.20
12049;DHT22;6085;49.452;8.502;2022-08-03T17:47:49;32.90;50.40
12049;DHT22;6085;49.452;8.502;2022-08-03T17:51:55;32.90;50.80
12049;DHT22;6085;49.452;8.502;2022-08-03T17:56:08;32.90;51.20
12049;DHT22;6085;49.452;8.502;2022-08-03T18:00:15;32.70;51.30
12049;DHT22;6085;49.452;8.502;2022-08-03T18:04:40;32.60;51.10
12049;DHT22;6085;49.452;8.502;2022-08-03T18:08:48;32.50;51.50
12049;DHT22;6085;49.452;8.502;2022-08-03T18:12:57;32.50;51.60
12049;DHT22;6085;49.452;8.502;2022-08-03T18:17:05;32.50;51.90
12049;DHT22;6085;49.452;8.502;2022-08-03T18:21:10;32.30;52.60
12049;DHT22;6085;49.452;8.502;2022-08-03T18:25:13;32.10;54.00
12049;DHT22;6085;49.452;8.502;2022-08-03T18:29:17;31.80;55.10
12049;DHT22;6085;49.452;8.502;2022-08-03T18:33:19;31.80;56.30
12049;DHT22;6085;49.452;8.502;2022-08-03T18:37:24;31.70;56.60
12049;DHT22;6085;49.452;8.502;2022-08-03T18:41:27;31.50;57.30
12049;DHT22;6085;49.452;8.502;2022-08-03T18:45:29;31.30;58.00
12049;DHT22;6085;49.452;8.502;2022-08-03T18:49:40;31.00;59.00
12049;DHT22;6085;49.452;8.502;2022-08-03T18:53:47;30.70;59.50
12049;DHT22;6085;49.452;8.502;2022-08-03T18:57:54;30.40;60.10
12049;DHT22;6085;49.452;8.502;2022-08-03T19:02:02;30.10;61.10
12049;DHT22;6085;49.452;8.502;2022-08-03T19:06:08;30.00;61.40
12049;DHT22;6085;49.452;8.502;2022-08-03T19:10:14;29.80;61.90
12049;DHT22;6085;49.452;8.502;2022-08-03T19:14:22;29.50;62.40
12049;DHT22;6085;49.452;8.502;2022-08-03T19:18:25;29.30;63.90
12049;DHT22;6085;49.452;8.502;2022-08-03T19:22:27;29.00;65.00
12049;DHT22;6085;49.452;8.502;2022-08-03T19:26:33;28.80;65.60
12049;DHT22;6085;49.452;8.502;2022-08-03T19:30:37;28.60;66.00
12049;DHT22;6085;49.452;8.502;2022-08-03T19:34:40;28.50;67.20
12049;DHT22;6085;49.452;8.502;2022-08-03T19:38:43;28.40;67.40
12049;DHT22;6085;49.452;8.502;2022-08-03T19:42:52;28.30;67.80
12049;DHT22;6085;49.452;8.502;2022-08-03T19:47:00;28.20;68.20
12049;DHT22;6085;49.452;8.502;2022-08-03T19:51:03;28.00;69.00
12049;DHT22;6085;49.452;8.502;2022-08-03T19:55:09;27.90;69.40
12049;DHT22;6085;49.452;8.502;2022-08-03T19:59:13;27.80;69.30
12049;DHT22;6085;49.452;8.502;2022-08-03T20:03:15;27.70;69.30
12049;DHT22;6085;49.452;8.502;2022-08-03T20:07:17;27.60;69.60
12049;DHT22;6085;49.452;8.502;2022-08-03T20:11:19;27.40;70.20
12049;DHT22;6085;49.452;8.502;2022-08-03T20:15:23;27.30;70.60
12049;DHT22;6085;49.452;8.502;2022-08-03T20:19:25;27.20;70.70
12049;DHT22;6085;49.452;8.502;2022-08-03T20:23:29;27.10;71.50
12049;DHT22;6085;49.452;8.502;2022-08-03T20:27:37;27.00;71.90
12049;DHT22;6085;49.452;8.502;2022-08-03T20:31:41;26.90;72.30
12049;DHT22;6085;49.452;8.502;2022-08-03T20:35:43;26.90;73.10
12049;DHT22;6085;49.452;8.502;2022-08-03T20:39:45;26.80;74.30
12049;DHT22;6085;49.452;8.502;2022-08-03T20:43:47;26.70;73.80
12049;DHT22;6085;49.452;8.502;2022-08-03T20:47:51;26.60;75.00
12049;DHT22;6085;49.452;8.502;2022-08-03T20:51:54;26.50;75.00
12049;DHT22;6085;49.452;8.502;2022-08-03T20:55:56;26.40;75.80
12049;DHT22;6085;49.452;8.502;2022-08-03T20:59:59;26.30;76.80
12049;DHT22;6085;49.452;8.502;2022-08-03T21:04:07;26.30;77.50
12049;DHT22;6085;49.452;8.502;2022-08-03T21:08:13;26.20;77.60
12049;DHT22;6085;49.452;8.502;2022-08-03T21:12:17;26.10;78.70
12049;DHT22;6085;49.452;8.502;2022-08-03T21:16:19;26.00;80.00
12049;DHT22;6085;49.452;8.502;2022-08-03T21:20:30;25.90;80.70
12049;DHT22;6085;49.452;8.502;2022-08-03T21:24:34;25.80;82.70
12049;DHT22;6085;49.452;8.502;2022-08-03T21:28:37;25.70;84.10
12049;DHT22;6085;49.452;8.502;2022-08-03T21:32:41;25.70;83.70
12049;DHT22;6085;49.452;8.502;2022-08-03T21:36:46;25.60;84.40
12049;DHT22;6085;49.452;8.502;2022-08-03T21:40:50;25.50;85.40
12049;DHT22;6085;49.452;8.502;2022-08-03T21:44:54;25.50;86.00
12049;DHT22;6085;49.452;8.502;2022-08-03T21:48:59;25.30;87.00
12049;DHT22;6085;49.452;8.502;2022-08-03T21:53:02;25.20;88.40
12049;DHT22;6085;49.452;8.502;2022-08-03T21:57:16;25.10;90.10
12049;DHT22;6085;49.452;8.502;2022-08-03T22:01:20;25.10;90.80
12049;DHT22;6085;49.452;8.502;2022-08-03T22:05:23;25.00;91.40
12049;DHT22;6085;49.452;8.502;2022-08-03T22:09:27;24.90;92.40
12049;DHT22;6085;49.452;8.502;2022-08-03T22:13:30;24.80;93.60
12049;DHT22;6085;49.452;8.502;2022-08-03T22:17:34;24.70;94.60
12049;DHT22;6085;49.452;8.502;2022-08-03T22:21:37;24.70;95.40
12049;DHT22;6085;49.452;8.502;2022-08-03T22:25:42;24.60;96.10
12049;DHT22;6085;49.452;8.502;2022-08-03T22:29:44;24.50;97.10
12049;DHT22;6085;49.452;8.502;2022-08-03T22:33:47;24.50;98.40
12049;DHT22;6085;49.452;8.502;2022-08-03T22:37:51;24.40;99.10
12049;DHT22;6085;49.452;8.502;2022-08-03T22:41:56;24.40;99.90
12049;DHT22;6085;49.452;8.502;2022-08-03T22:46:00;24.30;99.90
12049;DHT22;6085;49.452;8.502;2022-08-03T22:50:06;24.20;99.90
12049;DHT22;6085;49.452;8.502;2022-08-03T22:54:10;24.20;99.90
12049;DHT22;6085;49.452;8.502;2022-08-03T22:58:14;24.10;99.90
12049;DHT22;6085;49.452;8.502;2022-08-03T23:02:18;24.00;99.90
12049;DHT22;6085;49.452;8.502;2022-08-03T23:06:20;24.00;99.90
12049;DHT22;6085;49.452;8.502;2022-08-03T23:10:24;24.00;99.90
12049;DHT22;6085;49.452;8.502;2022-08-03T23:14:29;23.90;99.90
12049;DHT22;6085;49.452;8.502;2022-08-03T23:18:34;23.80;99.90
12049;DHT22;6085;49.452;8.502;2022-08-03T23:22:38;23.80;99.90
12049;DHT22;6085;49.452;8.502;2022-08-03T23:26:40;23.80;99.90
12049;DHT22;6085;49.452;8.502;2022-08-03T23:30:44;23.80;99.90
12049;DHT22;6085;49.452;8.502;2022-08-03T23:34:48;23.80;99.90
12049;DHT22;6085;49.452;8.502;2022-08-03T23:39:08;23.80;99.90
12049;DHT22;6085;49.452;8.502;2022-08-03T23:43:12;23.70;99.90
12049;DHT22;6085;49.452;8.502;2022-08-03T23:47:15;23.60;99.90
12049;DHT22;6085;49.452;8.502;2022-08-03T23:51:22;23.60;99.90
12049;DHT22;6085;49.452;8.502;2022-08-03T23:55:49;23.50;99.90
